Time;durP1;ratioP1;P1;durP2;ratioP2;P2;SDS_P1;SDS_P2;PMS_P1;PMS_P2;Temp;Humidity;BMP_temperature;BMP_pressure;BME280_temperature;BME280_humidity;BME280_pressure;Samples;Min_cycle;Max_cycle;Signal;HPM_P1;HPM_P2
2023/06/06 00:00:15;;;;;;;13.00;7.40;;;;;;;14.49;68.52;101324.31;839656;23;1139;-78
2023/06/06 00:00:37;;;;;;;11.93;7.30;;;;;;;14.51;68.59;101322.59;839004;23;1224;-78
2023/06/06 00:00:57;;;;;;;9.55;7.22;;;;;;;14.46;68.91;101319.00;837039;23;1124;-78
2023/06/06 00:01:18;;;;;;;9.68;6.95;;;;;;;14.49;68.98;101326.94;834757;23;1153;-79
2023/06/06 00:01:43;;;;;;;9.82;7.30;;;;;;;14.50;68.79;101331.31;841295;23;781;-78
2023/06/06 00:02:04;;;;;;;9.38;7.28;;;;;;;14.46;68.65;101323.34;835666;23;1603;-78
2023/06/06 00:02:24;;;;;;;10.57;7.45;;;;;;;14.46;68.80;101324.25;835890;23;1145;-78
2023/06/06 00:02:46;;;;;;;11.10;7.23;;;;;;;14.47;68.97;101328.66;841048;23;1167;-78
2023/06/06 00:03:06;;;;;;;12.38;7.25;;;;;;;14.42;68.53;101322.41;841002;23;1014;-78
2023/06/06 00:03:28;;;;;;;10.93;7.50;;;;;;;14.42;68.85;101318.88;837291;23;793;-78
2023/06/06 00:03:50;;;;;;;10.18;7.35;;;;;;;14.45;68.93;101326.84;837227;23;1111;-79
2023/06/06 00:04:10;;;;;;;8.88;7.03;;;;;;;14.40;69.08;101321.50;841110;23;1008;-78
2023/06/06 00:04:31;;;;;;;7.83;6.40;;;;;;;14.43;68.63;101325.94;841319;23;872;-78
2023/06/06 00:04:52;;;;;;;8.35;6.40;;;;;;;14.40;68.94;101324.13;842890;23;1123;-78
2023/06/06 00:05:15;;;;;;;10.27;6.75;;;;;;;14.39;68.92;101327.59;841078;23;960;-78
2023/06/06 00:05:35;;;;;;;10.82;6.72;;;;;;;14.38;68.97;101325.84;840126;23;988;-78
2023/06/06 00:05:59;;;;;;;10.77;6.97;;;;;;;14.39;69.05;101327.59;843733;23;1294;-78
2023/06/06 00:06:21;;;;;;;8.93;7.00;;;;;;;14.34;69.10;101326.59;839282;23;989;-78
2023/06/06 00:06:44;;;;;;;9.40;7.00;;;;;;;14.30;69.12;101319.50;841287;23;847;-78
2023/06/06 00:07:08;;;;;;;10.55;7.50;;;;;;;14.32;69.08;101320.44;842313;23;1007;-78
2023/06/06 00:07:29;;;;;;;11.95;7.65;;;;;;;14.31;69.25;101319.53;845167;23;811;-78
2023/06/06 00:07:50;;;;;;;11.43;7.72;;;;;;;14.26;69.08;101318.59;845175;23;1113;-78
2023/06/06 00:08:10;;;;;;;12.30;7.70;;;;;;;14.29;69.59;101315.09;839474;23;922;-77
2023/06/06 00:08:33;;;;;;;10.65;7.40;;;;;;;14.28;69.41;101319.50;843897;23;1352;-78
2023/06/06 00:08:54;;;;;;;10.38;7.15;;;;;;;14.27;69.21;101314.19;845126;23;1088;-78
2023/06/06 00:09:15;;;;;;;9.80;7.35;;;;;;;14.32;69.54;101325.69;840947;23;1004;-78
2023/06/06 00:09:35;;;;;;;10.60;7.40;;;;;;;14.26;69.54;101313.34;838867;23;1361;-78
2023/06/06 00:09:56;;;;;;;10.52;7.70;;;;;;;14.27;69.31;101322.97;835768;23;1242;-78
2023/06/06 00:10:18;;;;;;;9.97;7.60;;;;;;;14.29;69.66;101325.63;836964;23;1010;-78
2023/06/06 00:10:38;;;;;;;9.52;7.90;;;;;;;14.28;69.42;101322.13;835901;23;1466;-79
2023/06/06 00:11:00;;;;;;;11.00;7.82;;;;;;;14.30;69.52;101324.75;841056;23;1209;-78
2023/06/06 00:11:21;;;;;;;12.55;7.72;;;;;;;14.23;69.71;101316.78;841171;23;1000;-78
2023/06/06 00:11:42;;;;;;;12.85;7.82;;;;;;;14.28;69.64;101330.00;843822;23;1525;-78
2023/06/06 00:12:04;;;;;;;10.83;7.87;;;;;;;14.23;69.80;101322.03;843466;23;1138;-78
2023/06/06 00:12:25;;;;;;;9.32;7.75;;;;;;;14.24;69.69;101322.88;843918;23;1351;-78
2023/06/06 00:12:52;;;;;;;8.60;7.32;;;;;;;14.20;69.54;101311.44;839664;23;1170;-78
2023/06/06 00:13:13;;;;;;;8.68;7.25;;;;;;;14.27;69.84;101327.31;843801;23;1224;-79
2023/06/06 00:13:34;;;;;;;8.63;7.30;;;;;;;14.18;69.79;101318.41;839967;23;1364;-78
2023/06/06 00:13:56;;;;;;;9.80;7.47;;;;;;;14.19;69.78;101316.69;837169;23;1388;-78
2023/06/06 00:14:18;;;;;;;10.90;7.95;;;;;;;14.19;69.68;101325.41;841137;23;1120;-78
2023/06/06 00:14:40;;;;;;;11.68;8.18;;;;;;;14.21;69.65;101326.31;843855;23;1154;-79
2023/06/06 00:15:03;;;;;;;12.55;8.10;;;;;;;14.15;70.02;101320.06;843693;23;1829;-78
2023/06/06 00:15:24;;;;;;;12.32;7.93;;;;;;;14.17;69.66;101327.13;837411;23;801;-78
2023/06/06 00:15:45;;;;;;;12.38;8.00;;;;;;;14.16;69.75;101325.38;835695;23;1437;-79
2023/06/06 00:16:06;;;;;;;11.90;8.23;;;;;;;14.14;70.00;101315.69;840351;23;1262;-79
2023/06/06 00:16:27;;;;;;;12.10;8.18;;;;;;;14.21;70.09;101333.34;837261;23;844;-79
2023/06/06 00:16:49;;;;;;;11.93;8.20;;;;;;;14.10;70.09;101318.22;836557;23;996;-79
2023/06/06 00:17:10;;;;;;;11.55;7.95;;;;;;;14.08;69.93;101322.53;838082;23;1041;-78
2023/06/06 00:17:31;;;;;;;10.93;7.70;;;;;;;14.10;70.13;101320.84;842971;23;1402;-79
2023/06/06 00:17:55;;;;;;;10.70;7.60;;;;;;;14.10;69.98;101318.22;839736;23;1041;-79
2023/06/06 00:18:16;;;;;;;11.20;7.60;;;;;;;14.13;70.10;101332.28;840976;23;985;-78
2023/06/06 00:18:38;;;;;;;11.70;7.80;;;;;;;14.12;70.23;101334.00;841278;23;829;-78
2023/06/06 00:19:00;;;;;;;10.85;7.90;;;;;;;14.11;70.11;101327.00;839155;23;1332;-78
2023/06/06 00:19:22;;;;;;;12.10;8.07;;;;;;;14.11;70.37;101327.88;839111;23;1954;-78
2023/06/06 00:19:42;;;;;;;11.80;8.00;;;;;;;14.08;70.27;101332.16;837385;23;846;-78
2023/06/06 00:20:09;;;;;;;11.23;7.90;;;;;;;14.06;70.53;101328.56;837130;23;986;-78
2023/06/06 00:20:32;;;;;;;10.73;7.88;;;;;;;14.07;70.57;101325.13;835884;23;1404;-77
2023/06/06 00:20:54;;;;;;;10.57;7.97;;;;;;;14.07;70.59;101331.25;834860;23;1248;-78
2023/06/06 00:21:16;;;;;;;9.73;7.68;;;;;;;14.06;70.26;101318.09;835763;23;1333;-78
2023/06/06 00:21:36;;;;;;;9.88;7.70;;;;;;;14.05;70.32;101326.81;835129;23;1515;-77
2023/06/06 00:21:57;;;;;;;11.43;7.70;;;;;;;14.10;70.66;101330.44;839667;23;1039;-77
2023/06/06 00:22:24;;;;;;;11.87;7.93;;;;;;;14.02;70.47;101319.75;835654;23;1160;-78
2023/06/06 00:22:46;;;;;;;12.02;8.20;;;;;;;14.02;70.52;101319.75;835796;23;1189;-77
2023/06/06 00:23:07;;;;;;;11.35;7.97;;;;;;;14.09;70.31;101328.66;837129;23;998;-78
2023/06/06 00:23:28;;;;;;;11.23;7.90;;;;;;;14.05;70.32;101327.72;836000;23;1190;-77
2023/06/06 00:23:49;;;;;;;10.35;7.90;;;;;;;14.05;70.35;101330.34;843691;23;1177;-77
2023/06/06 00:24:11;;;;;;;12.00;8.13;;;;;;;14.03;70.34;101323.28;843639;23;1070;-78
2023/06/06 00:24:32;;;;;;;12.07;7.90;;;;;;;13.98;70.27;101320.53;841138;23;898;-77
2023/06/06 00:24:53;;;;;;;13.02;8.00;;;;;;;14.00;70.40;101324.09;842009;23;1083;-77
2023/06/06 00:25:14;;;;;;;11.75;8.05;;;;;;;14.07;70.55;101333.00;843034;23;1255;-78
2023/06/06 00:25:34;;;;;;;11.00;8.00;;;;;;;14.04;70.47;101325.03;842407;23;1387;-78
2023/06/06 00:25:55;;;;;;;9.63;8.30;;;;;;;14.04;70.61;101330.28;845062;23;988;-78
2023/06/06 00:26:16;;;;;;;12.57;8.60;;;;;;;14.03;70.50;101324.19;839630;23;1156;-78
2023/06/06 00:26:40;;;;;;;12.90;8.65;;;;;;;14.02;70.32;101326.75;835732;23;1424;-77
2023/06/06 00:27:01;;;;;;;12.80;8.60;;;;;;;14.02;70.27;101326.75;834887;23;1176;-78
2023/06/06 00:27:22;;;;;;;10.40;8.20;;;;;;;14.02;70.60;101326.75;834880;23;1317;-78
2023/06/06 00:27:43;;;;;;;10.98;7.97;;;;;;;14.00;70.44;101328.47;837298;23;997;-78
2023/06/06 00:28:04;;;;;;;11.23;7.60;;;;;;;14.00;70.55;101325.84;839070;23;1158;-78
2023/06/06 00:28:24;;;;;;;11.15;7.57;;;;;;;14.00;70.64;101331.09;841358;23;771;-78
2023/06/06 00:28:46;;;;;;;10.50;7.93;;;;;;;13.94;70.45;101330.09;845085;23;1163;-77
2023/06/06 00:29:06;;;;;;;9.90;8.10;;;;;;;13.95;70.59;101325.75;840997;23;1091;-78
2023/06/06 00:29:27;;;;;;;10.32;8.20;;;;;;;13.97;70.88;101338.00;839934;23;1395;-77
2023/06/06 00:29:49;;;;;;;9.70;8.10;;;;;;;13.90;71.14;101322.97;837287;23;1074;-78
2023/06/06 00:30:10;;;;;;;9.00;7.77;;;;;;;13.92;70.96;101325.66;847742;23;1213;-79
2023/06/06 00:30:31;;;;;;;8.77;7.57;;;;;;;13.87;70.97;101322.91;848089;23;1239;-77
2023/06/06 00:30:52;;;;;;;9.57;7.40;;;;;;;13.89;71.05;101325.59;843079;23;1080;-78
2023/06/06 00:31:13;;;;;;;12.63;7.88;;;;;;;13.84;71.04;101317.63;839627;23;1264;-77
2023/06/06 00:31:33;;;;;;;12.65;7.68;;;;;;;13.85;70.75;101322.00;835942;23;1094;-78
2023/06/06 00:31:54;;;;;;;10.88;7.40;;;;;;;13.87;70.93;101322.91;837154;23;994;-78
2023/06/06 00:32:15;;;;;;;11.30;7.30;;;;;;;13.91;70.78;101337.00;840987;23;1035;-77
2023/06/06 00:32:36;;;;;;;12.00;7.45;;;;;;;13.83;71.18;101321.09;841328;23;791;-78
2023/06/06 00:32:57;;;;;;;12.20;7.70;;;;;;;13.85;70.92;101330.75;841040;23;973;-77
2023/06/06 00:33:18;;;;;;;12.13;7.70;;;;;;;13.79;71.12;101321.84;839214;23;1349;-78
2023/06/06 00:33:38;;;;;;;12.13;8.07;;;;;;;13.80;71.11;101324.53;839913;23;1339;-77
2023/06/06 00:33:59;;;;;;;12.75;7.75;;;;;;;13.79;71.35;101324.47;843513;23;1240;-77
2023/06/06 00:34:20;;;;;;;13.18;7.50;;;;;;;13.83;71.45;101335.09;839257;23;982;-78
2023/06/06 00:34:40;;;;;;;12.77;7.47;;;;;;;13.79;71.12;101320.13;845347;23;677;-78
2023/06/06 00:35:01;;;;;;;12.93;7.70;;;;;;;13.78;70.91;101330.59;841032;23;1090;-78
2023/06/06 00:35:22;;;;;;;12.43;7.90;;;;;;;13.84;71.27;101325.50;845290;23;893;-78
2023/06/06 00:35:43;;;;;;;12.13;8.05;;;;;;;13.75;71.33;101315.66;839620;23;1364;-77
2023/06/06 00:36:04;;;;;;;12.27;8.30;;;;;;;13.77;71.37;101319.19;835044;23;1313;-77
2023/06/06 00:36:25;;;;;;;13.50;8.43;;;;;;;13.76;71.23;101320.03;835783;23;1623;-78
2023/06/06 00:36:46;;;;;;;16.10;8.70;;;;;;;13.79;71.30;101328.00;840325;23;1052;-78
2023/06/06 00:37:06;;;;;;;16.10;8.90;;;;;;;13.75;71.58;101314.78;841076;23;990;-78
2023/06/06 00:37:28;;;;;;;14.05;8.60;;;;;;;13.74;71.46;101310.34;841302;23;852;-78
2023/06/06 00:37:48;;;;;;;12.40;8.13;;;;;;;13.77;71.36;101315.69;835578;23;1209;-78
2023/06/06 00:38:09;;;;;;;11.57;7.40;;;;;;;13.77;71.42;101328.81;843492;23;1199;-77
2023/06/06 00:38:31;;;;;;;11.75;7.35;;;;;;;13.70;71.50;101320.78;836091;23;1161;-78
2023/06/06 00:38:52;;;;;;;12.80;7.70;;;;;;;13.71;71.56;101319.94;835274;23;1201;-78
2023/06/06 00:39:13;;;;;;;12.45;7.90;;;;;;;13.77;71.36;101334.94;841055;23;1153;-78
2023/06/06 00:39:33;;;;;;;11.90;7.97;;;;;;;13.74;71.53;101331.34;837253;23;1947;-78
2023/06/06 00:39:54;;;;;;;11.40;8.00;;;;;;;13.73;71.52;101329.56;843701;23;1130;-78
2023/06/06 00:40:15;;;;;;;10.88;8.30;;;;;;;13.67;71.70;101320.72;841086;23;1025;-77
2023/06/06 00:40:35;;;;;;;11.48;8.27;;;;;;;13.68;71.97;101319.88;845365;23;815;-77
2023/06/06 00:40:56;;;;;;;11.40;8.27;;;;;;;13.64;71.74;101307.53;847868;23;1379;-77
2023/06/06 00:41:17;;;;;;;11.77;8.10;;;;;;;13.66;71.54;101318.94;839715;23;1176;-79
2023/06/06 00:41:38;;;;;;;11.98;8.23;;;;;;;13.73;71.69;101334.81;835896;23;1225;-78
2023/06/06 00:41:59;;;;;;;12.43;8.10;;;;;;;13.73;71.88;101332.19;839604;23;1160;-78
2023/06/06 00:42:20;;;;;;;11.80;8.05;;;;;;;13.74;71.90;101331.34;849245;23;1090;-78
2023/06/06 00:42:41;;;;;;;11.02;8.13;;;;;;;13.68;71.68;101325.13;847905;23;1065;-78
2023/06/06 00:43:01;;;;;;;11.00;8.23;;;;;;;13.68;71.74;101326.84;847502;23;1183;-78
2023/06/06 00:43:22;;;;;;;11.07;8.40;;;;;;;13.63;71.72;101321.50;843388;23;1180;-78
2023/06/06 00:43:43;;;;;;;11.53;8.13;;;;;;;13.71;71.82;101333.06;843779;23;1172;-78
2023/06/06 00:44:04;;;;;;;10.80;8.20;;;;;;;13.66;72.14;101328.56;846564;23;1204;-78
2023/06/06 00:44:25;;;;;;;10.80;8.38;;;;;;;13.64;71.97;101325.88;839850;23;1176;-77
2023/06/06 00:44:46;;;;;;;10.90;8.43;;;;;;;13.67;71.86;101325.06;837021;23;994;-77
2023/06/06 00:45:08;;;;;;;11.18;8.35;;;;;;;13.62;71.78;101317.09;836953;23;923;-78
2023/06/06 00:45:28;;;;;;;10.82;7.90;;;;;;;13.71;72.11;101345.28;839888;23;1120;-78
2023/06/06 00:45:51;;;;;;;11.30;8.20;;;;;;;13.58;71.92;101325.72;838474;23;1360;-78
2023/06/06 00:46:13;;;;;;;12.63;8.32;;;;;;;13.64;72.02;101331.13;842749;23;1022;-79
2023/06/06 00:46:34;;;;;;;12.63;8.70;;;;;;;13.63;71.77;101328.50;841273;23;759;-77
2023/06/06 00:46:54;;;;;;;12.93;8.65;;;;;;;13.66;71.75;101333.81;839122;23;1359;-79
2023/06/06 00:47:16;;;;;;;11.20;8.32;;;;;;;13.65;71.93;101335.53;841110;23;1092;-78
2023/06/06 00:47:37;;;;;;;11.48;8.20;;;;;;;13.61;71.98;101341.56;838617;23;1107;-78
2023/06/06 00:47:58;;;;;;;10.90;8.32;;;;;;;13.64;71.91;101344.25;843776;23;1335;-78
2023/06/06 00:48:20;;;;;;;10.75;8.35;;;;;;;13.61;72.22;101338.03;842682;23;1276;-78
2023/06/06 00:48:41;;;;;;;10.18;8.00;;;;;;;13.57;72.07;101334.44;843808;23;1115;-77
2023/06/06 00:49:02;;;;;;;12.38;8.00;;;;;;;13.56;72.08;101327.44;851646;23;1128;-78
2023/06/06 00:49:24;;;;;;;12.38;8.00;;;;;;;13.58;72.05;101333.59;847896;23;1218;-78
2023/06/06 00:49:48;;;;;;;13.27;8.45;;;;;;;13.53;71.91;101322.13;839656;23;1138;-78
2023/06/06 00:50:12;;;;;;;12.23;8.55;;;;;;;13.60;72.05;101339.78;835287;23;1187;-78
2023/06/06 00:50:34;;;;;;;11.55;8.57;;;;;;;13.54;72.35;101331.75;837373;23;708;-79
2023/06/06 00:50:55;;;;;;;10.90;8.52;;;;;;;13.55;72.35;101325.66;836875;23;1078;-78
2023/06/06 00:51:16;;;;;;;10.93;8.43;;;;;;;13.57;72.30;101339.69;839378;23;1259;-78
2023/06/06 00:51:38;;;;;;;11.10;8.52;;;;;;;13.56;72.17;101332.69;845210;23;892;-78
2023/06/06 00:52:00;;;;;;;10.82;8.48;;;;;;;13.61;72.12;101338.03;845082;23;1085;-77
2023/06/06 00:52:21;;;;;;;10.95;8.88;;;;;;;13.58;72.33;101336.22;838470;23;1326;-79
2023/06/06 00:52:46;;;;;;;11.65;8.88;;;;;;;13.63;72.47;101344.22;840378;23;1239;-78
2023/06/06 00:53:09;;;;;;;11.60;8.80;;;;;;;13.55;72.47;101328.28;840784;23;1544;-77
2023/06/06 00:53:30;;;;;;;10.80;8.60;;;;;;;13.57;72.45;101331.81;839858;23;1455;-78
2023/06/06 00:53:55;;;;;;;10.82;8.63;;;;;;;13.55;72.22;101331.81;845055;23;1079;-78
2023/06/06 00:54:18;;;;;;;10.95;8.70;;;;;;;13.61;72.27;101340.66;845041;23;1050;-77
2023/06/06 00:54:40;;;;;;;12.73;8.20;;;;;;;13.54;72.38;101329.13;845254;23;848;-77
2023/06/06 00:55:02;;;;;;;13.25;8.32;;;;;;;13.57;72.49;101339.69;840803;23;1198;-77
2023/06/06 00:55:23;;;;;;;13.73;8.52;;;;;;;13.51;72.54;101329.94;839806;23;1249;-78
2023/06/06 00:55:45;;;;;;;11.70;8.55;;;;;;;13.56;72.10;101337.91;837228;23;1156;-77
2023/06/06 00:56:06;;;;;;;13.38;9.20;;;;;;;13.54;72.49;101330.00;841163;23;1093;-78
2023/06/06 00:56:28;;;;;;;14.85;9.20;;;;;;;13.57;72.42;101343.22;844020;23;1424;-78
2023/06/06 00:56:51;;;;;;;13.98;8.65;;;;;;;13.52;72.32;101330.84;846255;23;1235;-78
2023/06/06 00:57:12;;;;;;;12.25;8.30;;;;;;;13.49;72.45;101330.75;845036;23;982;-78
2023/06/06 00:57:35;;;;;;;11.50;8.05;;;;;;;13.60;72.47;101344.13;835886;23;1096;-78
2023/06/06 00:57:56;;;;;;;12.18;8.50;;;;;;;13.60;72.44;101355.53;839689;23;1447;-77
2023/06/06 00:58:18;;;;;;;12.10;8.37;;;;;;;13.56;72.32;101343.16;841077;23;1034;-79
2023/06/06 00:58:41;;;;;;;15.98;8.95;;;;;;;13.57;72.31;101337.97;845459;23;814;-78
2023/06/06 00:59:03;;;;;;;15.30;8.80;;;;;;;13.54;72.33;101334.38;843170;23;1363;-79
2023/06/06 00:59:24;;;;;;;16.10;9.20;;;;;;;13.49;72.11;101336.00;839665;23;1904;-78
2023/06/06 00:59:47;;;;;;;11.40;8.75;;;;;;;13.56;72.27;101344.06;839647;23;1328;-78
2023/06/06 01:00:08;;;;;;;12.43;8.75;;;;;;;13.56;72.17;101343.16;840933;23;898;-78
2023/06/06 01:00:32;;;;;;;12.13;8.52;;;;;;;13.52;72.13;101338.72;839670;23;1206;-79
2023/06/06 01:00:54;;;;;;;12.20;8.60;;;;;;;13.52;72.21;101336.09;842109;23;1340;-77
2023/06/06 01:01:16;;;;;;;12.18;8.80;;;;;;;13.48;72.00;101334.22;835541;23;1181;-78
2023/06/06 01:01:39;;;;;;;12.77;9.02;;;;;;;13.48;72.48;101337.75;835229;23;1238;-77
2023/06/06 01:02:03;;;;;;;13.85;8.93;;;;;;;13.56;72.05;101348.41;831591;23;1261;-78
2023/06/06 01:02:24;;;;;;;12.60;8.50;;;;;;;13.48;72.03;101334.22;835838;23;1183;-78
2023/06/06 01:02:47;;;;;;;12.50;8.80;;;;;;;13.47;72.40;101335.06;834185;23;1207;-78
2023/06/06 01:03:14;;;;;;;10.68;8.48;;;;;;;13.46;72.35;101336.81;839303;23;1120;-78
2023/06/06 01:03:35;;;;;;;11.20;8.60;;;;;;;13.49;72.12;101336.91;841180;23;803;-78
2023/06/06 01:04:00;;;;;;;11.20;8.30;;;;;;;13.51;72.35;101345.69;839123;23;1257;-78
2023/06/06 01:04:21;;;;;;;11.57;8.00;;;;;;;13.47;72.23;101340.31;837222;23;1033;-78
2023/06/06 01:04:43;;;;;;;11.45;7.90;;;;;;;13.41;72.30;101339.31;839952;23;1325;-78
2023/06/06 01:05:09;;;;;;;11.00;8.32;;;;;;;13.48;72.27;101345.63;845011;23;1013;-78
2023/06/06 01:05:33;;;;;;;12.23;9.07;;;;;;;13.45;72.29;101342.91;849411;23;897;-78
2023/06/06 01:05:55;;;;;;;12.18;8.80;;;;;;;13.45;72.47;101336.78;847854;23;1187;-78
2023/06/06 01:06:16;;;;;;;10.55;8.50;;;;;;;13.42;72.34;101335.84;849221;23;1032;-78
2023/06/06 01:06:37;;;;;;;10.07;8.20;;;;;;;13.47;72.17;101345.56;845485;23;830;-78
2023/06/06 01:06:58;;;;;;;11.60;8.40;;;;;;;13.45;72.29;101342.91;844638;23;1028;-78
2023/06/06 01:07:18;;;;;;;11.93;8.50;;;;;;;13.42;72.50;101335.84;843338;23;1275;-77
2023/06/06 01:07:42;;;;;;;12.15;8.45;;;;;;;13.38;72.41;101328.75;839948;23;1352;-77
2023/06/06 01:08:04;;;;;;;11.57;8.52;;;;;;;13.42;72.50;101343.69;837021;23;1119;-77
2023/06/06 01:08:25;;;;;;;11.75;9.02;;;;;;;13.40;72.38;101339.28;835902;23;1292;-78
2023/06/06 01:08:46;;;;;;;11.77;9.35;;;;;;;13.39;72.20;101334.91;835211;23;1206;-78
2023/06/06 01:09:09;;;;;;;12.13;9.57;;;;;;;13.42;72.65;101340.22;831479;23;1103;-78
2023/06/06 01:09:30;;;;;;;12.10;9.05;;;;;;;13.36;72.31;101333.09;833269;23;819;-78
2023/06/06 01:09:51;;;;;;;11.55;8.70;;;;;;;13.37;72.00;101337.47;833114;23;1075;-78
2023/06/06 01:10:12;;;;;;;12.75;8.60;;;;;;;13.37;72.11;101337.47;840970;23;998;-78
2023/06/06 01:10:35;;;;;;;13.70;9.00;;;;;;;13.34;72.55;101332.13;845238;23;815;-78
2023/06/06 01:11:06;;;;;;;14.00;8.70;;;;;;;13.35;72.46;101341.78;844989;23;992;-78
2023/06/06 01:11:52;;;;;;;11.63;7.82;;;;;;;13.38;72.61;101346.19;843813;23;1295;-79
2023/06/06 01:12:23;;;;;;;11.55;8.00;;;;;;;13.40;72.19;101348.03;835157;23;1450;-78
2023/06/06 01:13:01;;;;;;;11.43;8.15;;;;;;;13.37;72.39;101339.19;841192;23;1115;-78
2023/06/06 01:13:36;;;;;;;11.60;8.20;;;;;;;13.36;72.12;101340.94;843116;23;1212;-78
2023/06/06 01:14:06;;;;;;;11.30;7.97;;;;;;;13.36;72.12;101342.66;835684;23;1369;-78
2023/06/06 01:15:03;;;;;;;11.73;8.18;;;;;;;13.39;71.98;101343.63;845373;23;1065;-78
2023/06/06 01:15:44;;;;;;;12.35;8.73;;;;;;;13.37;72.28;101341.81;835845;23;1141;-78
2023/06/06 01:16:11;;;;;;;11.50;8.63;;;;;;;13.30;72.13;101338.16;839036;23;1037;-78
2023/06/06 01:16:34;;;;;;;13.07;8.77;;;;;;;13.26;72.24;101328.44;843874;23;1113;-78
2023/06/06 01:16:57;;;;;;;14.07;8.88;;;;;;;13.36;72.16;101348.81;844477;23;1116;-79
2023/06/06 01:17:19;;;;;;;13.95;9.30;;;;;;;13.35;72.49;101354.00;839481;23;1177;-78
2023/06/06 01:17:41;;;;;;;12.38;9.40;;;;;;;13.33;72.46;101345.22;835775;23;1113;-78
2023/06/06 01:18:04;;;;;;;12.63;8.98;;;;;;;13.30;72.31;101346.03;836909;23;1112;-78
2023/06/06 01:18:25;;;;;;;12.90;8.90;;;;;;;13.26;72.43;101338.91;835722;23;1349;-78
2023/06/06 01:18:48;;;;;;;12.43;8.60;;;;;;;13.24;72.67;101332.75;831739;23;1225;-78
2023/06/06 01:19:16;;;;;;;12.02;8.55;;;;;;;13.33;72.66;101345.22;831406;23;1262;-78
2023/06/06 01:19:41;;;;;;;13.25;8.73;;;;;;;13.30;72.41;101344.28;837271;23;756;-79
2023/06/06 01:20:04;;;;;;;14.02;9.30;;;;;;;13.30;72.34;101344.28;840657;23;1020;-78
2023/06/06 01:20:25;;;;;;;11.98;9.07;;;;;;;13.29;72.58;101344.25;834990;23;1477;-78
2023/06/06 01:20:47;;;;;;;10.73;8.35;;;;;;;13.23;72.47;101333.59;839533;23;1294;-78
2023/06/06 01:21:08;;;;;;;11.20;8.23;;;;;;;13.28;72.45;101345.97;836963;23;1023;-78
2023/06/06 01:21:35;;;;;;;12.55;8.95;;;;;;;13.27;72.38;101346.81;839074;23;1197;-78
2023/06/06 01:21:57;;;;;;;14.57;9.30;;;;;;;13.23;72.62;101338.84;839696;23;1137;-78
2023/06/06 01:22:22;;;;;;;14.10;9.02;;;;;;;13.22;72.43;101337.06;836960;23;987;-78
2023/06/06 01:22:46;;;;;;;12.77;8.90;;;;;;;13.30;72.49;101351.25;839970;23;1235;-78
2023/06/06 01:23:10;;;;;;;12.55;8.90;;;;;;;13.23;72.30;101338.84;836981;23;917;-78
2023/06/06 01:23:31;;;;;;;12.65;9.10;;;;;;;13.23;72.52;101336.22;835027;23;1344;-78
2023/06/06 01:23:52;;;;;;;11.88;8.80;;;;;;;13.25;72.46;101342.38;837105;23;973;-79
2023/06/06 01:24:14;;;;;;;12.02;8.70;;;;;;;13.21;72.69;101341.41;835664;23;1123;-78
2023/06/06 01:24:36;;;;;;;11.73;8.32;;;;;;;13.16;72.60;101338.69;835919;23;1376;-78
2023/06/06 01:24:57;;;;;;;12.23;8.43;;;;;;;13.22;72.49;101342.31;835752;23;1276;-78
2023/06/06 01:25:19;;;;;;;11.50;8.18;;;;;;;13.15;72.44;101331.66;834213;23;1188;-78
2023/06/06 01:25:44;;;;;;;12.25;8.50;;;;;;;13.20;72.81;101341.41;845253;23;811;-78
2023/06/06 01:26:05;;;;;;;10.90;8.38;;;;;;;13.13;72.84;101338.59;839358;23;1388;-78
2023/06/06 01:26:26;;;;;;;10.48;8.07;;;;;;;13.15;72.83;101341.28;841294;23;740;-77
2023/06/06 01:26:47;;;;;;;10.32;8.23;;;;;;;13.09;72.57;101336.72;831539;23;1338;-78
2023/06/06 01:27:07;;;;;;;10.50;8.30;;;;;;;13.08;72.58;101340.22;835557;23;1335;-79
2023/06/06 01:28:04;;;;;;;10.55;8.57;;;;;;;13.14;72.72;101350.84;837317;23;709;-78
2023/06/06 01:28:27;;;;;;;13.35;9.15;;;;;;;13.06;72.81;101341.91;835736;23;1196;-78
2023/06/06 01:28:48;;;;;;;13.75;8.80;;;;;;;13.10;72.59;101341.13;849000;23;944;-78
2023/06/06 01:29:09;;;;;;;12.50;8.40;;;;;;;13.07;72.70;101342.78;843422;23;1217;-78
2023/06/06 01:29:31;;;;;;;14.98;8.07;;;;;;;13.02;72.79;101329.56;838828;23;1169;-78
2023/06/06 01:29:52;;;;;;;16.58;8.60;;;;;;;13.02;73.04;101332.19;838217;23;1133;-78
2023/06/06 01:30:15;;;;;;;15.43;8.73;;;;;;;13.07;72.95;101343.69;841074;23;993;-77
2023/06/06 01:30:36;;;;;;;14.00;8.70;;;;;;;13.01;73.16;101333.03;835021;23;1819;-79
2023/06/06 01:30:56;;;;;;;13.40;8.70;;;;;;;13.02;72.93;101343.56;839579;23;1144;-78
2023/06/06 01:31:22;;;;;;;12.68;8.30;;;;;;;12.99;73.04;101335.63;841053;23;1012;-78
2023/06/06 01:31:52;;;;;;;12.00;8.50;;;;;;;13.01;73.07;101333.03;841345;23;802;-78
2023/06/06 01:32:22;;;;;;;12.45;8.65;;;;;;;13.08;72.84;101345.44;835639;23;998;-78
2023/06/06 01:32:57;;;;;;;13.40;8.85;;;;;;;13.08;72.74;101342.81;835745;23;1253;-79
2023/06/06 01:33:44;;;;;;;13.38;9.10;;;;;;;13.07;72.91;101346.28;835238;23;2054;-78
2023/06/06 01:34:30;;;;;;;13.50;9.10;;;;;;;12.97;73.17;101331.19;835547;23;2096;-78
2023/06/06 01:35:08;;;;;;;14.27;8.73;;;;;;;12.99;73.26;101333.00;832035;23;1041;-78
2023/06/06 01:35:36;;;;;;;12.93;8.50;;;;;;;13.04;73.29;101341.00;831465;23;1305;-78
2023/06/06 01:35:57;;;;;;;12.48;8.90;;;;;;;13.01;72.90;101338.25;835667;23;1256;-78
2023/06/06 01:36:27;;;;;;;12.15;8.70;;;;;;;13.06;72.96;101347.16;835568;23;1339;-78
2023/06/06 01:36:54;;;;;;;13.70;8.85;;;;;;;12.93;73.02;101329.28;836333;23;1057;-78
2023/06/06 01:37:51;;;;;;;14.30;8.80;;;;;;;13.03;73.07;101347.03;835549;23;1333;-79
2023/06/06 01:38:18;;;;;;;14.32;9.25;;;;;;;13.01;73.29;101340.88;830872;23;1103;-78
2023/06/06 01:38:53;;;;;;;13.13;8.95;;;;;;;12.98;73.20;101339.06;831141;23;1485;-78
2023/06/06 01:39:18;;;;;;;11.82;8.88;;;;;;;12.92;73.23;101327.50;828974;23;992;-78
2023/06/06 01:39:45;;;;;;;11.60;8.60;;;;;;;12.95;73.18;101340.72;825299;23;772;-78
2023/06/06 01:40:09;;;;;;;10.73;8.38;;;;;;;12.98;73.13;101343.44;819849;24;1007;-78
2023/06/06 01:40:33;;;;;;;11.93;8.15;;;;;;;12.93;73.00;101327.59;827821;23;1269;-78
2023/06/06 01:40:57;;;;;;;13.13;8.45;;;;;;;12.94;73.13;101328.47;834660;23;1126;-79
2023/06/06 01:41:20;;;;;;;12.80;8.45;;;;;;;12.92;73.07;101323.16;839571;23;1308;-78
2023/06/06 01:41:48;;;;;;;12.07;8.43;;;;;;;13.01;72.78;101341.78;837232;23;963;-78
2023/06/06 01:42:10;;;;;;;13.07;8.23;;;;;;;12.96;72.74;101335.53;838186;23;1001;-78
2023/06/06 01:42:36;;;;;;;13.20;8.60;;;;;;;12.92;72.99;101327.50;835854;23;1280;-78
2023/06/06 01:42:57;;;;;;;11.88;8.60;;;;;;;12.94;72.80;101338.94;837102;23;981;-78
2023/06/06 01:43:20;;;;;;;11.00;8.60;;;;;;;12.88;73.09;101337.00;835475;23;1365;-78
2023/06/06 01:43:44;;;;;;;11.02;8.70;;;;;;;12.82;72.85;101327.25;839652;23;1260;-78
2023/06/06 01:44:08;;;;;;;12.70;8.77;;;;;;;12.88;72.85;101343.16;839123;23;1008;-78
2023/06/06 01:44:31;;;;;;;14.27;8.70;;;;;;;12.86;73.20;101342.19;835820;23;1189;-78
2023/06/06 01:44:55;;;;;;;13.15;8.75;;;;;;;12.85;73.09;101340.44;833108;23;1018;-78
2023/06/06 01:45:21;;;;;;;12.30;8.18;;;;;;;12.84;73.19;101340.41;840858;23;966;-79
2023/06/06 01:45:43;;;;;;;12.55;8.07;;;;;;;12.84;72.92;101341.28;843782;23;1239;-79
2023/06/06 01:46:06;;;;;;;12.88;8.30;;;;;;;12.80;73.42;101328.97;839564;23;1160;-78
2023/06/06 01:46:28;;;;;;;11.95;8.70;;;;;;;12.87;73.17;101345.72;835896;23;1304;-79
2023/06/06 01:46:49;;;;;;;12.10;8.70;;;;;;;12.80;73.30;101339.44;838114;23;1287;-78
2023/06/06 01:47:12;;;;;;;11.77;8.73;;;;;;;12.83;73.48;101338.59;837008;23;1088;-79
2023/06/06 01:47:33;;;;;;;12.95;8.65;;;;;;;12.80;73.28;101331.56;834866;23;1339;-78
2023/06/06 01:47:55;;;;;;;14.52;9.23;;;;;;;12.80;73.42;101339.44;837387;23;988;-78
2023/06/06 01:48:17;;;;;;;15.13;9.50;;;;;;;12.84;73.29;101343.91;837287;23;1132;-78
2023/06/06 01:48:38;;;;;;;13.57;9.18;;;;;;;12.75;73.12;101331.44;836222;23;1011;-78
2023/06/06 01:49:00;;;;;;;12.50;8.30;;;;;;;12.79;73.43;101336.75;839823;23;1409;-79
2023/06/06 01:49:25;;;;;;;12.40;8.40;;;;;;;12.79;73.24;101342.88;836345;23;1376;-78